Time,TemperatureF,DewpointF,PressureIn,WindDirection,WindDirectionDegrees,WindSpeedMPH,WindSpeedGustMPH,Humidity,HourlyPrecipIn,Conditions,Clouds,dailyrainin,SoftwareType,DateUTC
2014-10-23 00:00:00,55.8,43.7,29.89,SE,135,6.0,8.9,64,0.00,,,0.00,WUHU216HW,2014-10-23 05:00:00,
2014-10-23 00:05:00,55.8,43.7,29.89,South,180,6.0,11.6,64,0.00,,,0.00,WUHU216HW,2014-10-23 05:05:00,
2014-10-23 00:11:00,55.8,44.2,29.88,South,180,8.5,11.6,65,0.00,,,0.00,WUHU216HW,2014-10-23 05:11:00,
2014-10-23 00:16:00,55.8,44.2,29.88,SSW,203,11.2,11.2,65,0.00,,,0.00,WUHU216HW,2014-10-23 05:16:00,
2014-10-23 00:19:00,55.8,44.2,29.88,SSE,158,6.7,11.2,65,0.00,,,0.00,WUHU216HW,2014-10-23 05:19:00,
2014-10-23 00:31:00,55.8,44.2,29.87,South,180,7.6,11.2,65,0.00,,,0.00,WUHU216HW,2014-10-23 05:31:00,
2014-10-23 00:32:00,55.8,44.6,29.87,SSW,203,7.6,9.6,66,0.00,,,0.00,WUHU216HW,2014-10-23 05:32:00,
2014-10-23 00:33:00,55.8,44.2,29.87,South,180,7.2,9.6,65,0.00,,,0.00,WUHU216HW,2014-10-23 05:33:00,
2014-10-23 00:44:00,55.8,44.6,29.86,SE,135,5.4,8.3,66,0.00,,,0.00,WUHU216HW,2014-10-23 05:44:00,
2014-10-23 00:49:00,55.8,44.6,29.87,SSW,203,5.1,8.3,66,0.00,,,0.00,WUHU216HW,2014-10-23 05:49:00,
2014-10-23 00:54:00,55.8,44.6,29.87,South,180,7.4,7.6,66,0.00,,,0.00,WUHU216HW,2014-10-23 05:54:00,
2014-10-23 00:59:00,55.8,45.0,29.87,South,180,5.6,8.5,67,0.00,,,0.00,WUHU216HW,2014-10-23 05:59:00,
2014-10-23 01:04:00,55.8,45.0,29.87,SSW,203,2.5,8.5,67,0.00,,,0.00,WUHU216HW,2014-10-23 06:04:00,
2014-10-23 01:09:00,55.8,45.8,29.87,South,180,9.2,9.2,69,0.00,,,0.00,WUHU216HW,2014-10-23 06:09:00,
2014-10-23 01:14:00,55.8,46.3,29.87,South,180,8.5,9.2,70,0.00,,,0.00,WUHU216HW,2014-10-23 06:14:00,
2014-10-23 01:19:00,55.6,47.1,29.87,SSW,203,3.8,12.8,73,0.00,,,0.00,WUHU216HW,2014-10-23 06:19:00,
2014-10-23 01:24:00,55.3,47.1,29.86,SE,135,3.1,12.8,74,0.00,,,0.00,WUHU216HW,2014-10-23 06:24:00,
2014-10-23 01:29:00,55.1,47.6,29.86,SSE,158,3.6,9.8,76,0.00,,,0.00,WUHU216HW,2014-10-23 06:29:00,
2014-10-23 01:34:00,54.7,47.3,29.87,SE,135,3.8,9.8,76,0.00,,,0.00,WUHU216HW,2014-10-23 06:34:00,
2014-10-23 01:39:00,54.4,47.0,29.86,South,180,4.0,8.5,76,0.00,,,0.00,WUHU216HW,2014-10-23 06:39:00,
2014-10-23 01:44:00,54.2,47.2,29.86,South,180,6.9,8.9,77,0.00,,,0.00,WUHU216HW,2014-10-23 06:44:00,
2014-10-23 01:49:00,54.0,47.4,29.86,South,180,4.9,8.9,78,0.01,,,0.01,WUHU216HW,2014-10-23 06:49:00,
2014-10-23 01:54:00,53.6,47.0,29.86,SSE,158,4.0,9.2,78,0.01,,,0.01,WUHU216HW,2014-10-23 06:54:00,
2014-10-23 01:59:00,53.6,47.3,29.86,SSW,203,5.8,9.8,79,0.01,,,0.01,WUHU216HW,2014-10-23 06:59:00,
2014-10-23 02:04:00,53.6,47.3,29.86,SE,135,4.3,9.8,79,0.01,,,0.01,WUHU216HW,2014-10-23 07:04:00,
2014-10-23 02:09:00,53.6,47.3,29.86,SSE,158,6.9,7.4,79,0.01,,,0.01,WUHU216HW,2014-10-23 07:09:00,
2014-10-23 02:14:00,53.6,47.7,29.86,SSW,203,2.9,6.9,80,0.01,,,0.01,WUHU216HW,2014-10-23 07:14:00,
2014-10-23 02:19:00,53.6,47.3,29.86,SE,135,4.7,8.9,79,0.01,,,0.01,WUHU216HW,2014-10-23 07:19:00,
2014-10-23 02:24:00,53.8,47.5,29.86,SSE,158,4.7,8.9,79,0.01,,,0.01,WUHU216HW,2014-10-23 07:24:00,
2014-10-23 02:29:00,53.8,47.5,29.86,SE,135,2.5,6.7,79,0.01,,,0.01,WUHU216HW,2014-10-23 07:29:00,
2014-10-23 02:34:00,53.8,47.5,29.86,SSW,203,5.4,7.6,79,0.01,,,0.01,WUHU216HW,2014-10-23 07:34:00,
2014-10-23 02:39:00,53.8,47.5,29.86,SE,135,5.4,7.6,79,0.01,,,0.01,WUHU216HW,2014-10-23 07:39:00,
2014-10-23 02:44:00,53.6,47.7,29.86,SSW,203,2.9,8.5,80,0.02,,,0.02,WUHU216HW,2014-10-23 07:44:00,
2014-10-23 02:49:00,53.3,48.0,29.86,WSW,248,2.9,8.9,82,0.02,,,0.03,WUHU216HW,2014-10-23 07:49:00,
2014-10-23 02:54:00,53.1,48.1,29.86,SSW,203,6.0,9.6,83,0.03,,,0.04,WUHU216HW,2014-10-23 07:54:00,
2014-10-23 02:59:00,52.9,47.9,29.86,SSW,203,4.9,9.6,83,0.05,,,0.06,WUHU216HW,2014-10-23 07:59:00,
2014-10-23 03:04:00,52.7,48.3,29.86,South,180,5.6,6.3,85,0.05,,,0.06,WUHU216HW,2014-10-23 08:04:00,
2014-10-23 03:09:00,52.6,48.2,29.86,SW,225,3.4,7.6,85,0.05,,,0.06,WUHU216HW,2014-10-23 08:09:00,
2014-10-23 03:14:00,52.6,48.2,29.86,ESE,113,2.0,7.6,85,0.07,,,0.08,WUHU216HW,2014-10-23 08:14:00,
2014-10-23 03:19:00,52.4,48.2,29.86,SSW,203,1.8,6.9,86,0.07,,,0.08,WUHU216HW,2014-10-23 08:19:00,
2014-10-23 03:24:00,52.4,48.2,29.86,South,180,4.7,6.9,86,0.07,,,0.08,WUHU216HW,2014-10-23 08:24:00,
2014-10-23 03:29:00,52.2,48.1,29.85,South,180,4.0,6.3,86,0.07,,,0.08,WUHU216HW,2014-10-23 08:29:00,
2014-10-23 03:30:00,52.2,48.1,29.85,SSE,158,1.6,6.3,86,0.07,,,0.08,WUHU216HW,2014-10-23 08:30:00,
2014-10-23 03:35:00,52.4,48.2,29.85,SW,225,3.8,5.4,86,0.07,,,0.08,WUHU216HW,2014-10-23 08:35:00,
2014-10-23 03:36:00,52.2,48.1,29.85,SW,225,2.5,5.4,86,0.07,,,0.08,WUHU216HW,2014-10-23 08:36:00,
2014-10-23 03:37:00,52.4,48.2,29.85,SSW,203,4.7,5.4,86,0.07,,,0.08,WUHU216HW,2014-10-23 08:37:00,
2014-10-23 03:39:00,52.2,48.1,29.85,South,180,2.0,5.4,86,0.07,,,0.08,WUHU216HW,2014-10-23 08:39:00,
2014-10-23 03:40:00,52.4,48.2,29.85,SSE,158,2.2,5.4,86,0.07,,,0.08,WUHU216HW,2014-10-23 08:40:00,
2014-10-23 03:45:00,52.4,48.6,29.85,SSW,203,2.0,4.9,87,0.06,,,0.08,WUHU216HW,2014-10-23 08:45:00,
2014-10-23 03:47:00,52.4,48.6,29.85,South,180,2.2,4.9,87,0.05,,,0.08,WUHU216HW,2014-10-23 08:47:00,
2014-10-23 03:48:00,52.4,48.2,29.85,ESE,113,1.3,6.3,86,0.05,,,0.08,WUHU216HW,2014-10-23 08:48:00,
2014-10-23 03:49:00,52.4,48.2,29.85,South,180,2.9,6.3,86,0.04,,,0.08,WUHU216HW,2014-10-23 08:49:00,
2014-10-23 03:55:00,52.6,48.4,29.85,South,180,4.7,8.1,86,0.02,,,0.08,WUHU216HW,2014-10-23 08:55:00,
2014-10-23 03:56:00,52.6,48.4,29.85,SSE,158,3.6,8.1,86,0.02,,,0.08,WUHU216HW,2014-10-23 08:56:00,
2014-10-23 03:57:00,52.6,48.4,29.85,SSW,203,2.0,8.1,86,0.02,,,0.08,WUHU216HW,2014-10-23 08:57:00,
2014-10-23 03:59:00,52.6,48.4,29.85,SW,225,2.7,8.1,86,0.02,,,0.08,WUHU216HW,2014-10-23 08:59:00,
2014-10-23 04:04:00,52.6,48.4,29.85,SW,225,4.3,8.7,86,0.02,,,0.08,WUHU216HW,2014-10-23 09:04:00,
2014-10-23 04:05:00,52.6,48.4,29.85,SSW,203,4.9,8.7,86,0.02,,,0.08,WUHU216HW,2014-10-23 09:05:00,
2014-10-23 04:06:00,52.6,48.4,29.85,SSE,158,2.0,8.7,86,0.02,,,0.08,WUHU216HW,2014-10-23 09:06:00,
2014-10-23 04:08:00,52.6,48.4,29.85,South,180,1.6,8.7,86,0.02,,,0.08,WUHU216HW,2014-10-23 09:08:00,
2014-10-23 04:13:00,52.6,48.4,29.85,South,180,2.7,5.4,86,0.00,,,0.08,WUHU216HW,2014-10-23 09:13:00,
2014-10-23 04:14:00,52.6,48.4,29.85,SSW,203,1.8,5.4,86,0.00,,,0.08,WUHU216HW,2014-10-23 09:14:00,
2014-10-23 04:16:00,52.6,48.4,29.85,WSW,248,2.5,5.4,86,0.00,,,0.08,WUHU216HW,2014-10-23 09:16:00,
2014-10-23 04:17:00,52.7,48.6,29.85,SE,135,0.4,5.4,86,0.00,,,0.08,WUHU216HW,2014-10-23 09:17:00,
2014-10-23 04:22:00,52.7,48.6,29.85,SSW,203,0.7,5.4,86,0.00,,,0.08,WUHU216HW,2014-10-23 09:22:00,
2014-10-23 04:23:00,52.7,48.6,29.85,South,180,1.8,5.4,86,0.00,,,0.08,WUHU216HW,2014-10-23 09:23:00,
2014-10-23 04:25:00,52.7,48.6,29.85,SW,225,1.3,5.4,86,0.00,,,0.08,WUHU216HW,2014-10-23 09:25:00,
2014-10-23 04:26:00,52.7,48.6,29.85,SSW,203,2.7,5.4,86,0.00,,,0.08,WUHU216HW,2014-10-23 09:26:00,
2014-10-23 04:32:00,52.7,48.6,29.85,South,180,1.3,4.7,86,0.00,,,0.08,WUHU216HW,2014-10-23 09:32:00,
2014-10-23 04:33:00,52.7,48.6,29.85,South,180,3.1,4.7,86,0.00,,,0.08,WUHU216HW,2014-10-23 09:33:00,
2014-10-23 04:34:00,52.7,48.6,29.85,SW,225,0.7,4.7,86,0.00,,,0.08,WUHU216HW,2014-10-23 09:34:00,
2014-10-23 04:35:00,52.7,48.6,29.85,WSW,248,0.9,4.7,86,0.00,,,0.08,WUHU216HW,2014-10-23 09:35:00,
2014-10-23 04:37:00,52.7,48.6,29.85,SW,225,2.0,4.3,86,0.00,,,0.08,WUHU216HW,2014-10-23 09:37:00,
2014-10-23 04:41:00,52.7,49.0,29.85,SW,225,1.8,3.8,87,0.00,,,0.08,WUHU216HW,2014-10-23 09:41:00,
2014-10-23 04:42:00,52.7,48.6,29.85,SW,225,2.2,3.8,86,0.00,,,0.08,WUHU216HW,2014-10-23 09:42:00,
2014-10-23 04:44:00,52.9,48.8,29.85,SSW,203,2.0,3.8,86,0.00,,,0.08,WUHU216HW,2014-10-23 09:44:00,
2014-10-23 04:45:00,52.7,48.6,29.85,SW,225,1.6,3.8,86,0.00,,,0.08,WUHU216HW,2014-10-23 09:45:00,
2014-10-23 04:51:00,52.7,49.0,29.85,SSW,203,0.7,5.4,87,0.00,,,0.08,WUHU216HW,2014-10-23 09:51:00,
2014-10-23 04:53:00,52.7,49.0,29.85,SSW,203,1.3,5.4,87,0.00,,,0.08,WUHU216HW,2014-10-23 09:53:00,
2014-10-23 04:54:00,52.7,48.6,29.85,SSW,203,4.0,5.4,86,0.00,,,0.08,WUHU216HW,2014-10-23 09:54:00,
2014-10-23 04:55:00,52.7,48.6,29.85,SW,225,1.1,5.4,86,0.00,,,0.08,WUHU216HW,2014-10-23 09:55:00,
2014-10-23 05:01:00,52.7,48.6,29.85,SSW,203,2.7,6.5,86,0.00,,,0.08,WUHU216HW,2014-10-23 10:01:00,
2014-10-23 05:02:00,52.7,48.6,29.85,SSE,158,4.7,6.5,86,0.00,,,0.08,WUHU216HW,2014-10-23 10:02:00,
2014-10-23 05:03:00,52.7,48.6,29.85,SSE,158,3.8,6.5,86,0.00,,,0.08,WUHU216HW,2014-10-23 10:03:00,
2014-10-23 05:04:00,52.7,48.6,29.85,SSW,203,2.2,6.5,86,0.00,,,0.08,WUHU216HW,2014-10-23 10:04:00,
2014-10-23 05:05:00,52.9,48.8,29.85,SSE,158,2.2,6.5,86,0.00,,,0.08,WUHU216HW,2014-10-23 10:05:00,
2014-10-23 05:10:00,52.9,48.8,29.85,South,180,1.8,4.7,86,0.00,,,0.08,WUHU216HW,2014-10-23 10:10:00,
2014-10-23 05:11:00,52.9,48.8,29.85,SSW,203,4.9,4.9,86,0.00,,,0.08,WUHU216HW,2014-10-23 10:11:00,
2014-10-23 05:12:00,52.7,48.6,29.85,SSE,158,3.6,4.9,86,0.00,,,0.08,WUHU216HW,2014-10-23 10:12:00,
2014-10-23 05:14:00,52.7,48.6,29.84,SSE,158,4.3,4.9,86,0.00,,,0.08,WUHU216HW,2014-10-23 10:14:00,
2014-10-23 05:15:00,52.7,48.6,29.84,SSE,158,3.8,4.9,86,0.00,,,0.08,WUHU216HW,2014-10-23 10:15:00,
2014-10-23 05:19:00,52.7,48.6,29.85,SSW,203,3.4,4.9,86,0.00,,,0.08,WUHU216HW,2014-10-23 10:19:00,
2014-10-23 05:21:00,52.7,48.6,29.85,South,180,2.0,4.9,86,0.00,,,0.08,WUHU216HW,2014-10-23 10:21:00,
2014-10-23 05:22:00,52.9,48.8,29.85,SW,225,0.4,4.9,86,0.00,,,0.08,WUHU216HW,2014-10-23 10:22:00,
2014-10-23 05:24:00,52.7,48.6,29.85,SSE,158,1.6,4.7,86,0.00,,,0.08,WUHU216HW,2014-10-23 10:24:00,
2014-10-23 05:27:00,52.9,48.8,29.85,South,180,1.6,4.9,86,0.00,,,0.08,WUHU216HW,2014-10-23 10:27:00,
2014-10-23 05:29:00,52.9,48.8,29.85,SSW,203,1.1,4.9,86,0.00,,,0.08,WUHU216HW,2014-10-23 10:29:00,
2014-10-23 05:30:00,52.7,48.6,29.85,South,180,1.3,4.9,86,0.00,,,0.08,WUHU216HW,2014-10-23 10:30:00,
2014-10-23 05:32:00,52.7,48.6,29.85,South,180,3.6,4.9,86,0.00,,,0.08,WUHU216HW,2014-10-23 10:32:00,
2014-10-23 05:36:00,52.7,48.6,29.85,South,180,1.8,5.1,86,0.00,,,0.08,WUHU216HW,2014-10-23 10:36:00,
2014-10-23 05:38:00,52.7,48.6,29.84,SSW,203,1.6,5.1,86,0.00,,,0.08,WUHU216HW,2014-10-23 10:38:00,
2014-10-23 05:39:00,52.7,48.6,29.85,South,180,1.8,5.1,86,0.00,,,0.08,WUHU216HW,2014-10-23 10:39:00,
2014-10-23 05:41:00,52.7,48.6,29.85,South,180,3.6,5.1,86,0.00,,,0.08,WUHU216HW,2014-10-23 10:41:00,
2014-10-23 05:45:00,52.7,48.6,29.85,SSW,203,1.1,5.4,86,0.00,,,0.08,WUHU216HW,2014-10-23 10:45:00,
2014-10-23 05:46:00,52.7,48.6,29.85,SSW,203,2.2,5.4,86,0.00,,,0.08,WUHU216HW,2014-10-23 10:46:00,
2014-10-23 05:48:00,52.7,48.6,29.85,West,270,1.1,5.4,86,0.00,,,0.08,WUHU216HW,2014-10-23 10:48:00,
2014-10-23 05:49:00,52.7,49.0,29.85,West,270,0.7,5.4,87,0.00,,,0.08,WUHU216HW,2014-10-23 10:49:00,
2014-10-23 05:54:00,52.7,49.0,29.85,SSW,203,1.3,5.4,87,0.00,,,0.08,WUHU216HW,2014-10-23 10:54:00,
2014-10-23 05:55:00,52.7,49.0,29.85,South,180,6.0,6.0,87,0.00,,,0.08,WUHU216HW,2014-10-23 10:55:00,
2014-10-23 05:56:00,52.7,49.0,29.85,South,180,2.9,6.0,87,0.00,,,0.08,WUHU216HW,2014-10-23 10:56:00,
2014-10-23 05:58:00,52.7,49.0,29.84,SSE,158,1.8,6.0,87,0.00,,,0.08,WUHU216HW,2014-10-23 10:58:00,
2014-10-23 06:03:00,52.7,49.0,29.84,South,180,3.4,6.0,87,0.00,,,0.08,WUHU216HW,2014-10-23 11:03:00,
2014-10-23 06:04:00,52.7,49.0,29.84,South,180,2.5,6.0,87,0.00,,,0.08,WUHU216HW,2014-10-23 11:04:00,
2014-10-23 06:06:00,52.7,49.0,29.84,SW,225,1.6,4.9,87,0.00,,,0.08,WUHU216HW,2014-10-23 11:06:00,
2014-10-23 06:07:00,52.7,49.0,29.84,SSW,203,5.1,5.1,87,0.00,,,0.08,WUHU216HW,2014-10-23 11:07:00,
2014-10-23 06:13:00,52.7,49.2,29.84,South,180,4.0,7.2,88,0.00,,,0.08,WUHU216HW,2014-10-23 11:13:00,
2014-10-23 06:14:00,52.7,49.2,29.84,SSE,158,2.5,7.2,88,0.00,,,0.08,WUHU216HW,2014-10-23 11:14:00,
2014-10-23 06:16:00,52.7,49.0,29.84,SSE,158,4.0,7.2,87,0.00,,,0.08,WUHU216HW,2014-10-23 11:16:00,
2014-10-23 06:17:00,52.6,48.8,29.84,SSE,158,2.5,7.2,87,0.00,,,0.08,WUHU216HW,2014-10-23 11:17:00,
2014-10-23 06:21:00,52.6,48.8,29.84,South,180,2.9,7.2,87,0.00,,,0.08,WUHU216HW,2014-10-23 11:21:00,
2014-10-23 06:22:00,52.6,48.8,29.84,South,180,4.9,7.2,87,0.00,,,0.08,WUHU216HW,2014-10-23 11:22:00,
2014-10-23 06:24:00,52.6,48.8,29.84,SSW,203,1.1,5.4,87,0.00,,,0.08,WUHU216HW,2014-10-23 11:24:00,
2014-10-23 06:25:00,52.6,48.8,29.85,SSE,158,3.4,5.4,87,0.00,,,0.08,WUHU216HW,2014-10-23 11:25:00,
2014-10-23 06:30:00,52.6,49.1,29.85,SSW,203,3.4,5.4,88,0.00,,,0.08,WUHU216HW,2014-10-23 11:30:00,
2014-10-23 06:31:00,52.6,49.1,29.84,SE,135,1.1,5.4,88,0.00,,,0.08,WUHU216HW,2014-10-23 11:31:00,
2014-10-23 06:33:00,52.6,49.1,29.85,South,180,1.8,5.4,88,0.00,,,0.08,WUHU216HW,2014-10-23 11:33:00,
2014-10-23 06:34:00,52.6,49.1,29.84,SSW,203,1.6,5.4,88,0.00,,,0.08,WUHU216HW,2014-10-23 11:34:00,
2014-10-23 06:39:00,52.6,49.1,29.84,SSE,158,1.3,4.9,88,0.00,,,0.08,WUHU216HW,2014-10-23 11:39:00,
2014-10-23 06:40:00,52.6,49.1,29.84,South,180,2.5,3.1,88,0.00,,,0.08,WUHU216HW,2014-10-23 11:40:00,
2014-10-23 06:41:00,52.6,49.1,29.84,SSW,203,1.6,3.1,88,0.00,,,0.08,WUHU216HW,2014-10-23 11:41:00,
2014-10-23 06:43:00,52.6,49.1,29.84,SSW,203,1.8,3.6,88,0.00,,,0.08,WUHU216HW,2014-10-23 11:43:00,
2014-10-23 06:47:00,52.6,49.1,29.84,South,180,1.1,3.6,88,0.00,,,0.08,WUHU216HW,2014-10-23 11:47:00,
2014-10-23 06:49:00,52.6,49.1,29.84,SSE,158,1.1,3.6,88,0.00,,,0.08,WUHU216HW,2014-10-23 11:49:00,
2014-10-23 06:50:00,52.6,49.1,29.84,SSW,203,3.8,3.8,88,0.00,,,0.08,WUHU216HW,2014-10-23 11:50:00,
2014-10-23 06:51:00,52.6,49.1,29.84,SSE,158,2.9,3.8,88,0.00,,,0.08,WUHU216HW,2014-10-23 11:51:00,
2014-10-23 06:56:00,52.6,49.1,29.84,South,180,1.1,4.3,88,0.00,,,0.08,WUHU216HW,2014-10-23 11:56:00,
2014-10-23 06:58:00,52.6,49.1,29.84,South,180,2.5,4.7,88,0.00,,,0.08,WUHU216HW,2014-10-23 11:58:00,
2014-10-23 06:59:00,52.6,49.1,29.84,South,180,2.0,4.7,88,0.00,,,0.08,WUHU216HW,2014-10-23 11:59:00,
2014-10-23 07:01:00,52.6,48.8,29.85,SSE,158,1.8,4.7,87,0.00,,,0.08,WUHU216HW,2014-10-23 12:01:00,
2014-10-23 07:06:00,52.6,49.1,29.85,SSE,158,0.9,4.7,88,0.00,,,0.08,WUHU216HW,2014-10-23 12:06:00,
2014-10-23 07:07:00,52.6,49.1,29.85,SSE,158,1.1,4.7,88,0.00,,,0.08,WUHU216HW,2014-10-23 12:07:00,
2014-10-23 07:09:00,52.6,49.1,29.85,South,180,1.8,4.0,88,0.00,,,0.08,WUHU216HW,2014-10-23 12:09:00,
2014-10-23 07:10:00,52.6,49.1,29.85,SSW,203,0.2,4.0,88,0.00,,,0.08,WUHU216HW,2014-10-23 12:10:00,
2014-10-23 07:14:00,52.6,49.1,29.85,SSE,158,2.2,4.0,88,0.00,,,0.08,WUHU216HW,2014-10-23 12:14:00,
2014-10-23 07:16:00,52.6,49.1,29.85,South,180,1.1,2.5,88,0.00,,,0.08,WUHU216HW,2014-10-23 12:16:00,
2014-10-23 07:17:00,52.6,49.1,29.85,SSE,158,2.7,2.7,88,0.00,,,0.08,WUHU216HW,2014-10-23 12:17:00,
2014-10-23 07:19:00,52.6,49.1,29.85,SSW,203,1.1,3.1,88,0.00,,,0.08,WUHU216HW,2014-10-23 12:19:00,
2014-10-23 07:28:00,52.6,49.1,29.85,SSW,203,1.1,4.3,88,0.00,,,0.08,WUHU216HW,2014-10-23 12:28:00,
2014-10-23 07:33:00,52.6,49.1,29.85,SSW,203,3.1,4.7,88,0.00,,,0.08,WUHU216HW,2014-10-23 12:33:00,
2014-10-23 07:38:00,52.6,49.1,29.85,South,180,1.1,4.7,88,0.00,,,0.08,WUHU216HW,2014-10-23 12:38:00,